Austin, TX (78746)

12:24 PM CDT on October 31, 2014 (GMT -0500)
Camelot | Change Station
CLOSE
Current Station
Personal Weather Station
Location: Austin, TX
Elevation: 925 ft
Nearby Weather Stations

Elev 925 ft 30.29 °N, 97.83 °W | Updated 1 second ago

Clear
Clear
70.9 °F
Feels Like 77 °F
N
8.0
Wind Variable Wind from NE
Gusts 11.0 mph

Today
High -- | Low -- °F
--% Chance of Precip.
Yesterday
High -- | Low -- °F
Precip. -- in
7:44 AM 6:44 PM
First Quarter, 57% visible
Pressure 30.28 in
Visibility 10.0 miles
Clouds Clear
Heat Index 77 °F
Dew Point 47 °F
Humidity 42%
Rainfall 0.05 in
Snow Depth Not available.
UV 5 out of 12
Pollen 5.70 out of 12
Air Quality Not available.
Flu Activity Not available.
METAR KATT 311651Z AUTO 02011G18KT 10SM CLR 22/06 A3031 RMK AO2 SLP254 T02170061

More Conditions Fewer Conditions

Pressure 30.28 in
Visibility 10.0 miles
Clouds Clear
Heat Index 77 °F
Dew Point 47 °F
Humidity 42%
Rainfall 0.05 in
Snow Depth Not available.
UV 5 out of 12
Pollen 5.70 out of 12
Air Quality Not available.
Flu Activity Not available.
METAR KATT 311651Z AUTO 02011G18KT 10SM CLR 22/06 A3031 RMK AO2 SLP254 T02170061

More Conditions Fewer Conditions

10-Day Weather Forecast

Almanac

Astronomy

Oct. 31, 2014 Rise Set
Actual Time
Civil Twilight
Nautical Twilight
Astronomical Twilight
Moon
Length of Visible Light
Length of Day
Tomorrow will be .
, % of the Moon is Illuminated

Today's Extremes

State Highs State Lows

Community

WunderPhotos

Upload Photos

1,766,669 photos uploaded!

WunderBlogs® & News

Nearby

Air Quality

  Air Quality AQ Index Pollutant
Not available.

Snow Depth

Station Depth Elevation

Earthquake Activity

City Distance Mag. Time & Date
Minimum magnitude displayed is 2.5.

Coastal Water Temperatures

Place Temperature

Nearby Weather Stations